createdAt,value
2017-08-11T00:00:17.888Z,15.5
2017-08-11T00:01:30.464Z,15.45
2017-08-11T00:02:43.148Z,15.44
2017-08-11T00:03:55.738Z,15.39
2017-08-11T00:05:08.570Z,15.43
2017-08-11T00:06:21.181Z,15.37
2017-08-11T00:07:33.421Z,15.39
2017-08-11T00:08:45.700Z,15.39
2017-08-11T00:09:57.985Z,15.33
2017-08-11T00:11:10.256Z,15.29
2017-08-11T00:12:22.889Z,15.3
2017-08-11T00:13:35.132Z,15.35
2017-08-11T00:14:47.086Z,15.32
2017-08-11T00:15:59.365Z,15.35
2017-08-11T00:17:11.998Z,15.35
2017-08-11T00:18:24.559Z,15.32
2017-08-11T00:19:36.520Z,15.3
2017-08-11T00:20:48.819Z,15.3
2017-08-11T00:22:01.422Z,15.18
2017-08-11T00:23:13.741Z,15.25
2017-08-11T00:24:26.341Z,15.07
2017-08-11T00:25:38.625Z,15.11
2017-08-11T00:26:50.947Z,15.05
2017-08-11T00:28:03.254Z,15
2017-08-11T00:29:15.775Z,15.05
2017-08-11T00:30:28.093Z,14.92
2017-08-11T00:31:40.721Z,14.94
2017-08-11T00:32:53.335Z,14.93
2017-08-11T00:34:05.953Z,14.93
2017-08-11T00:35:18.592Z,14.86
2017-08-11T00:36:31.165Z,14.92
2017-08-11T00:37:43.791Z,14.97
2017-08-11T00:38:56.390Z,14.81
2017-08-11T00:40:08.696Z,14.9
2017-08-11T00:41:21.269Z,14.74
2017-08-11T00:42:33.234Z,14.89
2017-08-11T00:43:46.074Z,14.77
2017-08-11T00:44:58.658Z,14.81
2017-08-11T00:46:10.975Z,14.82
2017-08-11T00:47:22.922Z,14.87
2017-08-11T00:48:35.504Z,14.78
2017-08-11T00:49:48.077Z,14.79
2017-08-11T00:51:00.324Z,14.79
2017-08-11T00:52:12.901Z,14.77
2017-08-11T00:53:25.482Z,14.74
2017-08-11T00:54:37.760Z,14.78
2017-08-11T00:55:50.335Z,14.7
2017-08-11T00:57:02.905Z,14.66
2017-08-11T00:58:14.927Z,14.68
2017-08-11T00:59:27.570Z,14.74
2017-08-11T01:00:40.107Z,14.71
2017-08-11T01:01:52.649Z,14.77
2017-08-11T01:03:04.967Z,14.73
2017-08-11T01:04:17.552Z,14.68
2017-08-11T01:05:30.341Z,14.7
2017-08-11T01:06:42.591Z,14.71
2017-08-11T01:07:54.552Z,14.62
2017-08-11T01:09:07.136Z,14.71
2017-08-11T01:10:19.410Z,14.68
2017-08-11T01:11:31.737Z,14.67
2017-08-11T01:12:44.322Z,14.66
2017-08-11T01:13:56.569Z,14.68
2017-08-11T01:15:09.133Z,14.62
2017-08-11T01:16:21.686Z,14.62
2017-08-11T01:17:34.265Z,14.71
2017-08-11T01:18:46.610Z,14.63
2017-08-11T01:19:59.202Z,14.66
2017-08-11T01:21:12.052Z,14.63
2017-08-11T01:22:24.694Z,14.63
2017-08-11T01:23:36.962Z,14.62
2017-08-11T01:24:49.612Z,14.71
2017-08-11T01:26:02.221Z,14.67
2017-08-11T01:27:14.825Z,14.63
2017-08-11T01:28:27.424Z,14.71
2017-08-11T01:29:39.725Z,14.68
2017-08-11T01:30:52.323Z,14.7
2017-08-11T01:32:04.909Z,14.68
2017-08-11T01:33:17.566Z,14.66
2017-08-11T01:34:30.157Z,14.77
2017-08-11T01:35:42.107Z,14.71
2017-08-11T01:36:54.369Z,14.7
2017-08-11T01:38:06.982Z,14.78
2017-08-11T01:39:19.588Z,14.77
2017-08-11T01:40:31.906Z,14.62
2017-08-11T01:41:44.474Z,14.71
2017-08-11T01:42:57.100Z,14.78
2017-08-11T01:44:09.681Z,14.71
2017-08-11T01:45:22.237Z,14.67
2017-08-11T01:46:34.833Z,14.68
2017-08-11T01:47:47.406Z,14.74
2017-08-11T01:48:59.688Z,14.86
2017-08-11T01:50:12.359Z,14.68
2017-08-11T01:51:24.971Z,14.74
2017-08-11T01:52:37.632Z,14.78
2017-08-11T01:53:50.411Z,14.77
2017-08-11T01:55:02.380Z,14.68
2017-08-11T01:56:14.983Z,14.74
2017-08-11T01:57:27.555Z,14.73
2017-08-11T01:58:39.835Z,14.67
2017-08-11T01:59:52.121Z,14.77
2017-08-11T02:01:04.728Z,14.68
2017-08-11T02:02:16.961Z,14.73
2017-08-11T02:03:29.563Z,14.77
2017-08-11T02:04:41.852Z,14.81
2017-08-11T02:05:54.488Z,14.78
2017-08-11T02:07:07.114Z,14.73
2017-08-11T02:08:19.747Z,14.77
2017-08-11T02:09:31.709Z,14.78
2017-08-11T02:10:44.330Z,14.77
2017-08-11T02:11:56.894Z,14.78
2017-08-11T02:13:09.484Z,14.78
2017-08-11T02:14:22.058Z,14.87
2017-08-11T02:15:34.381Z,14.87
2017-08-11T02:16:46.914Z,14.92
2017-08-11T02:17:59.508Z,14.86
2017-08-11T02:19:12.055Z,14.93
2017-08-11T02:20:24.628Z,14.93
2017-08-11T02:21:37.123Z,14.94
2017-08-11T02:22:49.718Z,14.96
2017-08-11T02:24:02.365Z,14.94
2017-08-11T02:25:14.327Z,14.96
2017-08-11T02:26:26.972Z,15.04
2017-08-11T02:27:38.971Z,15.02
2017-08-11T02:28:51.544Z,15.07
2017-08-11T02:30:04.081Z,15.04
2017-08-11T02:31:16.374Z,15.05
2017-08-11T02:32:28.961Z,15.05
2017-08-11T02:33:41.524Z,15.11
2017-08-11T02:34:53.794Z,15.12
2017-08-11T02:36:06.417Z,15.11
2017-08-11T02:37:19.252Z,15.11
2017-08-11T02:38:31.554Z,15.11
2017-08-11T02:39:43.872Z,15.08
2017-08-11T02:40:56.125Z,15.12
2017-08-11T02:42:08.425Z,15.18
2017-08-11T02:43:20.680Z,15.19
2017-08-11T02:44:33.006Z,15.17
2017-08-11T02:45:45.325Z,15.19
2017-08-11T02:46:57.937Z,15.17
2017-08-11T02:48:10.519Z,15.23
2017-08-11T02:49:22.474Z,15.26
2017-08-11T02:50:34.739Z,15.22
2017-08-11T02:51:46.664Z,15.23
2017-08-11T02:52:58.912Z,15.29
2017-08-11T02:54:11.216Z,15.12
2017-08-11T02:55:23.526Z,15.17
2017-08-11T02:56:36.209Z,15.17
2017-08-11T02:57:48.788Z,15.3
2017-08-11T02:59:01.357Z,15.19
2017-08-11T03:00:14.036Z,15.3
2017-08-11T03:01:26.598Z,15.33
2017-08-11T03:02:39.205Z,15.26
2017-08-11T03:03:51.455Z,15.19
2017-08-11T03:05:04.054Z,15.3
2017-08-11T03:06:16.701Z,15.23
2017-08-11T03:07:29.310Z,15.37
2017-08-11T03:08:41.935Z,15.41
2017-08-11T03:09:54.154Z,15.36
2017-08-11T03:11:06.391Z,15.36
2017-08-11T03:12:18.398Z,15.36
2017-08-11T03:13:30.969Z,15.36
2017-08-11T03:14:43.551Z,15.37
2017-08-11T03:15:56.213Z,15.39
2017-08-11T03:17:08.466Z,15.36
2017-08-11T03:18:20.447Z,15.35
2017-08-11T03:19:32.497Z,15.36
2017-08-11T03:20:44.739Z,15.39
2017-08-11T03:21:57.028Z,15.36
2017-08-11T03:23:09.600Z,15.41
2017-08-11T03:24:22.214Z,15.39
2017-08-11T03:25:34.501Z,15.43
2017-08-11T03:26:46.722Z,15.55
2017-08-11T03:27:59.291Z,15.51
2017-08-11T03:29:11.554Z,15.44
2017-08-11T03:30:24.196Z,15.5
2017-08-11T03:31:36.836Z,15.55
2017-08-11T03:32:49.105Z,15.47
2017-08-11T03:34:01.704Z,15.52
2017-08-11T03:35:14.009Z,15.63
2017-08-11T03:36:26.624Z,15.55
2017-08-11T03:37:39.168Z,15.54
2017-08-11T03:38:51.491Z,15.55
2017-08-11T03:40:03.786Z,15.59
2017-08-11T03:41:15.770Z,15.6
2017-08-11T03:42:28.008Z,15.69
2017-08-11T03:43:40.366Z,15.55
2017-08-11T03:44:52.977Z,15.69
2017-08-11T03:46:05.306Z,15.6
2017-08-11T03:47:17.580Z,15.59
2017-08-11T03:48:29.864Z,15.63
2017-08-11T03:49:42.492Z,15.62
2017-08-11T03:50:54.813Z,15.72
2017-08-11T03:52:07.076Z,15.65
2017-08-11T03:53:19.731Z,15.75
2017-08-11T03:54:32.321Z,15.73
2017-08-11T03:55:44.920Z,15.67
2017-08-11T03:56:57.546Z,15.69
2017-08-11T03:58:09.845Z,15.69
2017-08-11T03:59:22.082Z,15.63
2017-08-11T04:00:34.382Z,15.69
2017-08-11T04:01:46.995Z,15.81
2017-08-11T04:02:59.576Z,15.7
2017-08-11T04:04:12.226Z,15.66
2017-08-11T04:05:24.824Z,15.73
2017-08-11T04:06:36.792Z,15.76
2017-08-11T04:07:49.392Z,15.76
2017-08-11T04:09:01.663Z,15.78
2017-08-11T04:10:13.701Z,15.76
2017-08-11T04:11:26.237Z,15.83
2017-08-11T04:12:38.815Z,15.83
2017-08-11T04:13:51.422Z,15.8
2017-08-11T04:15:04.036Z,15.85
2017-08-11T04:16:16.651Z,15.76
2017-08-11T04:17:28.980Z,15.75
2017-08-11T04:18:41.621Z,15.8
2017-08-11T04:19:54.216Z,15.83
2017-08-11T04:21:06.192Z,15.84
2017-08-11T04:22:18.755Z,15.85
2017-08-11T04:23:31.328Z,15.88
2017-08-11T04:24:43.599Z,15.85
2017-08-11T04:25:56.057Z,15.87
2017-08-11T04:27:08.659Z,15.85
2017-08-11T04:28:21.324Z,15.84
2017-08-11T04:29:33.926Z,15.96
2017-08-11T04:30:46.515Z,15.9
2017-08-11T04:31:59.053Z,15.98
2017-08-11T04:33:11.643Z,15.91
2017-08-11T04:34:24.229Z,15.94
2017-08-11T04:35:36.568Z,16.03
2017-08-11T04:36:49.526Z,16.02
2017-08-11T04:38:02.096Z,16
2017-08-11T04:39:14.052Z,16.05
2017-08-11T04:40:26.325Z,16.03
2017-08-11T04:41:38.595Z,16.06
2017-08-11T04:42:51.168Z,16.05
2017-08-11T04:44:03.720Z,16.03
2017-08-11T04:45:15.756Z,16.06
2017-08-11T04:46:28.404Z,16.13
2017-08-11T04:47:40.981Z,16.12
2017-08-11T04:48:53.197Z,16.1
2017-08-11T04:50:05.756Z,16.16
2017-08-11T04:51:18.052Z,16.18
2017-08-11T04:52:30.641Z,16.18
2017-08-11T04:53:43.177Z,16.18
2017-08-11T04:54:55.483Z,16.17
2017-08-11T04:56:07.741Z,16.21
2017-08-11T04:57:20.349Z,16.21
2017-08-11T04:58:32.313Z,16.25
2017-08-11T04:59:44.905Z,16.25
2017-08-11T05:00:57.141Z,16.24
2017-08-11T05:02:09.452Z,16.25
2017-08-11T05:03:21.992Z,16.26
2017-08-11T05:04:34.574Z,16.31
2017-08-11T05:05:47.227Z,16.28
2017-08-11T05:06:59.535Z,16.28
2017-08-11T05:08:11.555Z,16.32
2017-08-11T05:09:24.250Z,16.31
2017-08-11T05:10:36.548Z,16.25
2017-08-11T05:11:49.092Z,16.34
2017-08-11T05:13:01.654Z,16.37
2017-08-11T05:14:14.213Z,16.39
2017-08-11T05:15:26.814Z,16.37
2017-08-11T05:16:39.098Z,16.34
2017-08-11T05:17:51.744Z,16.37
2017-08-11T05:19:04.315Z,16.32
2017-08-11T05:20:16.868Z,16.37
2017-08-11T05:21:29.119Z,16.37
2017-08-11T05:22:41.432Z,16.32
2017-08-11T05:23:53.675Z,16.4
2017-08-11T05:25:06.219Z,16.31
2017-08-11T05:26:18.477Z,16.31
2017-08-11T05:27:30.817Z,16.37
2017-08-11T05:28:43.169Z,16.34
2017-08-11T05:29:55.728Z,16.4
2017-08-11T05:31:07.998Z,16.39
2017-08-11T05:32:20.229Z,16.4
2017-08-11T05:33:32.221Z,16.46
2017-08-11T05:34:44.463Z,16.55
2017-08-11T05:35:56.736Z,16.46
2017-08-11T05:37:09.382Z,16.4
2017-08-11T05:38:22.051Z,16.46
2017-08-11T05:39:34.049Z,16.44
2017-08-11T05:40:46.665Z,16.51
2017-08-11T05:41:58.991Z,16.49
2017-08-11T05:43:10.976Z,16.57
2017-08-11T05:44:23.297Z,16.58
2017-08-11T05:45:35.917Z,16.61
2017-08-11T05:46:48.218Z,16.62
2017-08-11T05:48:00.792Z,16.65
2017-08-11T05:49:12.796Z,16.58
2017-08-11T05:50:25.100Z,16.64
2017-08-11T05:51:37.388Z,16.72
2017-08-11T05:52:49.977Z,16.73
2017-08-11T05:54:02.493Z,16.74
2017-08-11T05:55:15.127Z,16.74
2017-08-11T05:56:27.142Z,16.82
2017-08-11T05:57:39.758Z,16.73
2017-08-11T05:58:52.311Z,16.69
2017-08-11T06:00:04.951Z,16.73
2017-08-11T06:01:17.523Z,16.79
2017-08-11T06:02:30.144Z,16.69
2017-08-11T06:03:42.714Z,16.91
2017-08-11T06:04:55.036Z,16.84
2017-08-11T06:06:07.617Z,16.94
2017-08-11T06:07:20.153Z,16.87
2017-08-11T06:08:32.748Z,16.94
2017-08-11T06:09:45.019Z,16.97
2017-08-11T06:10:56.957Z,16.99
2017-08-11T06:12:09.186Z,16.94
2017-08-11T06:13:21.218Z,17.09
2017-08-11T06:14:33.806Z,16.95
2017-08-11T06:15:46.076Z,17.02
2017-08-11T06:16:58.643Z,16.99
2017-08-11T06:18:10.950Z,16.98
2017-08-11T06:19:23.563Z,17.04
2017-08-11T06:20:35.849Z,17.07
2017-08-11T06:21:48.445Z,17.01
2017-08-11T06:23:00.999Z,17.01
2017-08-11T06:24:13.344Z,16.97
2017-08-11T06:25:25.914Z,17.1
2017-08-11T06:26:38.516Z,17.09
2017-08-11T06:27:50.213Z,17.13
2017-08-11T06:29:02.822Z,17.07
2017-08-11T06:30:15.348Z,17.12
2017-08-11T06:31:27.323Z,17.14
2017-08-11T06:32:39.922Z,17.23
2017-08-11T06:33:52.210Z,17.19
2017-08-11T06:35:04.533Z,17.3
2017-08-11T06:36:16.807Z,17.31
2017-08-11T06:37:29.393Z,17.32
2017-08-11T06:38:41.625Z,17.3
2017-08-11T06:39:53.942Z,17.38
2017-08-11T06:41:06.495Z,17.38
2017-08-11T06:42:19.000Z,17.37
2017-08-11T06:43:31.585Z,17.42
2017-08-11T06:44:44.183Z,17.42
2017-08-11T06:45:56.141Z,17.39
2017-08-11T06:47:08.421Z,17.46
2017-08-11T06:48:20.656Z,17.42
2017-08-11T06:49:32.937Z,17.56
2017-08-11T06:50:45.552Z,17.56
2017-08-11T06:51:57.579Z,17.56
2017-08-11T06:53:09.871Z,17.57
2017-08-11T06:54:22.442Z,17.66
2017-08-11T06:55:35.034Z,17.57
2017-08-11T06:56:47.670Z,17.59
2017-08-11T06:57:59.972Z,17.53
2017-08-11T06:59:12.587Z,17.65
2017-08-11T07:00:25.143Z,17.65
2017-08-11T07:01:37.761Z,17.63
2017-08-11T07:02:49.988Z,17.52
2017-08-11T07:04:02.658Z,17.6
2017-08-11T07:05:14.933Z,17.54
2017-08-11T07:06:27.512Z,17.71
2017-08-11T07:07:39.790Z,17.65
2017-08-11T07:08:52.344Z,17.69
2017-08-11T07:10:04.639Z,17.75
2017-08-11T07:11:17.166Z,17.82
2017-08-11T07:12:29.436Z,17.86
2017-08-11T07:13:41.378Z,17.94
2017-08-11T07:14:53.947Z,18
2017-08-11T07:16:06.216Z,18
2017-08-11T07:17:18.757Z,18.16
2017-08-11T07:18:31.359Z,18.13
2017-08-11T07:19:44.207Z,18.21
2017-08-11T07:20:56.776Z,18.24
2017-08-11T07:22:08.736Z,18.37
2017-08-11T07:23:21.036Z,18.34
2017-08-11T07:24:33.710Z,18.31
2017-08-11T07:25:45.686Z,18.24
2017-08-11T07:26:58.259Z,18.43
2017-08-11T07:28:10.506Z,18.43
2017-08-11T07:29:22.777Z,18.45
2017-08-11T07:30:35.405Z,18.52
2017-08-11T07:31:47.725Z,18.53
2017-08-11T07:33:00.013Z,18.51
2017-08-11T07:34:12.531Z,18.49
2017-08-11T07:35:25.179Z,18.57
2017-08-11T07:36:37.728Z,18.6
2017-08-11T07:37:50.022Z,18.66
2017-08-11T07:39:02.245Z,18.6
2017-08-11T07:40:14.188Z,18.57
2017-08-11T07:41:26.482Z,18.61
2017-08-11T07:42:38.163Z,18.7
2017-08-11T07:43:50.111Z,18.68
2017-08-11T07:45:02.438Z,18.7
2017-08-11T07:46:15.068Z,18.83
2017-08-11T07:47:27.692Z,18.89
2017-08-11T07:48:39.937Z,18.94
2017-08-11T07:49:52.479Z,19.12
2017-08-11T07:51:05.105Z,19.11
2017-08-11T07:52:17.702Z,19.35
2017-08-11T07:53:30.000Z,19.37
2017-08-11T07:54:42.553Z,19.37
2017-08-11T07:55:55.108Z,19.29
2017-08-11T07:57:07.059Z,19.49
2017-08-11T07:58:19.335Z,19.47
2017-08-11T07:59:31.348Z,19.53
2017-08-11T08:00:43.610Z,19.63
2017-08-11T08:01:56.208Z,19.66
2017-08-11T08:03:09.072Z,19.78
2017-08-11T08:04:21.668Z,19.74
2017-08-11T08:05:34.027Z,19.71
2017-08-11T08:06:46.616Z,19.79
2017-08-11T08:07:59.202Z,19.84
2017-08-11T08:09:11.843Z,19.78
2017-08-11T08:10:24.140Z,19.77
2017-08-11T08:11:36.432Z,19.7
2017-08-11T08:12:48.962Z,19.77
2017-08-11T08:14:01.324Z,19.79
2017-08-11T08:15:13.355Z,19.72
2017-08-11T08:16:25.973Z,19.81
2017-08-11T08:17:38.622Z,19.72
2017-08-11T08:18:51.219Z,19.67
2017-08-11T08:20:03.520Z,19.75
2017-08-11T08:21:15.816Z,19.78
2017-08-11T08:22:28.179Z,19.66
2017-08-11T08:23:40.165Z,19.72
2017-08-11T08:24:52.722Z,19.62
2017-08-11T08:26:05.307Z,19.6
2017-08-11T08:27:17.610Z,19.62
2017-08-11T08:28:29.937Z,19.57
2017-08-11T08:29:42.530Z,19.57
2017-08-11T08:30:54.866Z,19.56
2017-08-11T08:32:07.165Z,19.64
2017-08-11T08:33:19.794Z,19.55
2017-08-11T08:34:32.384Z,19.49
2017-08-11T08:35:44.986Z,19.45
2017-08-11T08:36:57.313Z,19.45
2017-08-11T08:38:09.934Z,19.41
2017-08-11T08:39:21.580Z,19.39
2017-08-11T08:40:34.216Z,19.32
2017-08-11T08:41:46.835Z,19.29
2017-08-11T08:42:59.136Z,19.3
2017-08-11T08:44:11.725Z,19.27
2017-08-11T08:45:23.728Z,19.27
2017-08-11T08:46:36.046Z,19.26
2017-08-11T08:47:48.659Z,19.09
2017-08-11T08:49:01.230Z,19.23
2017-08-11T08:50:13.531Z,19.12
2017-08-11T08:51:26.079Z,19.17
2017-08-11T08:52:38.634Z,19.2
2017-08-11T08:53:50.604Z,19.15
2017-08-11T08:55:02.910Z,19.09
2017-08-11T08:56:15.581Z,19.26
2017-08-11T08:57:27.537Z,19.2
2017-08-11T08:58:39.551Z,19.29
2017-08-11T08:59:51.560Z,19.26
2017-08-11T09:01:03.790Z,19.24
2017-08-11T09:02:16.027Z,19.35
2017-08-11T09:03:28.667Z,19.42
2017-08-11T09:04:41.318Z,19.44
2017-08-11T09:05:53.888Z,19.44
2017-08-11T09:07:05.535Z,19.44
2017-08-11T09:08:18.093Z,19.42
2017-08-11T09:09:30.703Z,19.47
2017-08-11T09:10:43.335Z,19.49
2017-08-11T09:11:55.618Z,19.47
2017-08-11T09:13:07.574Z,19.44
2017-08-11T09:14:19.787Z,19.47
2017-08-11T09:15:32.421Z,19.37
2017-08-11T09:16:44.731Z,19.45
2017-08-11T09:17:56.681Z,19.42
2017-08-11T09:19:08.931Z,19.35
2017-08-11T09:20:21.548Z,19.53
2017-08-11T09:21:34.151Z,19.47
2017-08-11T09:22:46.722Z,19.42
2017-08-11T09:23:59.255Z,19.38
2017-08-11T09:25:11.484Z,19.39
2017-08-11T09:26:23.820Z,19.35
2017-08-11T09:27:36.341Z,19.37
2017-08-11T09:28:48.644Z,19.26
2017-08-11T09:30:00.623Z,19.2
2017-08-11T09:31:13.314Z,19.17
2017-08-11T09:32:25.275Z,19.12
2017-08-11T09:33:37.877Z,19.17
2017-08-11T09:34:50.175Z,19.19
2017-08-11T09:36:02.153Z,19.17
2017-08-11T09:37:14.453Z,19.2
2017-08-11T09:38:26.725Z,19.15
2017-08-11T09:39:39.310Z,19.17
2017-08-11T09:40:52.156Z,19.2
2017-08-11T09:42:04.757Z,19.12
2017-08-11T09:43:17.335Z,19.11
2017-08-11T09:44:29.925Z,19.12
2017-08-11T09:45:42.294Z,19.01
2017-08-11T09:46:54.560Z,19.09
2017-08-11T09:48:07.148Z,19.07
2017-08-11T09:49:19.394Z,19.08
2017-08-11T09:50:32.035Z,19.09
2017-08-11T09:51:44.312Z,19.05
2017-08-11T09:52:56.931Z,19.11
2017-08-11T09:54:09.582Z,19.08
2017-08-11T09:55:22.160Z,19.09
2017-08-11T09:56:34.480Z,19.12
2017-08-11T09:57:46.415Z,18.98
2017-08-11T09:58:58.367Z,18.96
2017-08-11T10:00:11.045Z,18.92
2017-08-11T10:01:23.634Z,18.89
2017-08-11T10:02:35.934Z,18.89
2017-08-11T10:03:48.255Z,18.83
2017-08-11T10:05:00.246Z,18.79
2017-08-11T10:06:12.855Z,18.73
2017-08-11T10:07:25.143Z,18.67
2017-08-11T10:08:37.098Z,18.64
2017-08-11T10:09:49.086Z,18.67
2017-08-11T10:11:01.654Z,18.64
2017-08-11T10:12:13.890Z,18.68
2017-08-11T10:13:26.473Z,18.68
2017-08-11T10:14:39.065Z,18.6
2017-08-11T10:15:51.615Z,18.73
2017-08-11T10:17:03.585Z,18.68
2017-08-11T10:18:16.252Z,18.68
2017-08-11T10:19:28.875Z,18.6
2017-08-11T10:20:41.428Z,18.55
2017-08-11T10:21:53.733Z,18.6
2017-08-11T10:23:06.323Z,18.45
2017-08-11T10:24:18.649Z,18.61
2017-08-11T10:25:31.186Z,18.51
2017-08-11T10:26:43.765Z,18.49
2017-08-11T10:27:55.737Z,18.49
2017-08-11T10:29:08.351Z,18.45
2017-08-11T10:30:20.705Z,18.39
2017-08-11T10:31:33.025Z,18.42
2017-08-11T10:32:45.607Z,18.41
2017-08-11T10:33:57.929Z,18.41
2017-08-11T10:35:10.530Z,18.31
2017-08-11T10:36:23.098Z,18.37
2017-08-11T10:37:35.386Z,18.39
2017-08-11T10:38:47.983Z,18.37
2017-08-11T10:40:00.580Z,18.39
2017-08-11T10:41:12.862Z,18.31
2017-08-11T10:42:24.822Z,18.34
2017-08-11T10:43:37.452Z,18.42
2017-08-11T10:44:49.713Z,18.36
2017-08-11T10:46:01.710Z,18.37
2017-08-11T10:47:13.979Z,18.41
2017-08-11T10:48:26.331Z,18.39
2017-08-11T10:49:38.913Z,18.48
2017-08-11T10:50:51.210Z,18.49
2017-08-11T10:52:03.491Z,18.66
2017-08-11T10:53:15.715Z,18.67
2017-08-11T10:54:28.343Z,18.86
2017-08-11T10:55:40.351Z,19.07
2017-08-11T10:56:52.926Z,19.2
2017-08-11T10:58:05.211Z,19.37
2017-08-11T10:59:17.147Z,19.48
2017-08-11T11:00:29.421Z,19.6
2017-08-11T11:01:42.055Z,19.72
2017-08-11T11:02:54.654Z,19.84
2017-08-11T11:04:06.882Z,19.81
2017-08-11T11:05:19.442Z,19.87
2017-08-11T11:06:32.017Z,20.03
2017-08-11T11:07:44.585Z,20.03
2017-08-11T11:08:57.146Z,20.15
2017-08-11T11:10:09.163Z,20.12
2017-08-11T11:11:21.729Z,20.26
2017-08-11T11:12:33.993Z,20.36
2017-08-11T11:13:45.908Z,20.48
2017-08-11T11:14:58.220Z,20.55
2017-08-11T11:16:10.799Z,20.6
2017-08-11T11:17:23.130Z,20.64
2017-08-11T11:18:35.626Z,20.78
2017-08-11T11:19:48.201Z,20.85
2017-08-11T11:21:00.441Z,20.93
2017-08-11T11:22:12.738Z,21.13
2017-08-11T11:23:25.070Z,21.29
2017-08-11T11:24:37.631Z,21.44
2017-08-11T11:25:50.234Z,21.66
2017-08-11T11:27:01.863Z,21.85
2017-08-11T11:28:14.115Z,22.03
2017-08-11T11:29:26.721Z,22.25
2017-08-11T11:30:38.715Z,22.44
2017-08-11T11:31:51.269Z,22.67
2017-08-11T11:33:03.252Z,22.78
2017-08-11T11:34:15.871Z,22.86
2017-08-11T11:35:28.217Z,22.93
2017-08-11T11:36:40.840Z,23.04
2017-08-11T11:37:53.189Z,23.08
2017-08-11T11:39:05.516Z,23.23
2017-08-11T11:40:17.885Z,23.21
2017-08-11T11:41:29.896Z,23.18
2017-08-11T11:42:42.502Z,23.23
2017-08-11T11:43:54.839Z,23.18
2017-08-11T11:45:07.382Z,23.28
2017-08-11T11:46:19.654Z,23.32
2017-08-11T11:47:32.264Z,23.4
2017-08-11T11:48:44.573Z,23.47
2017-08-11T11:49:56.859Z,23.39
2017-08-11T11:51:09.411Z,23.4
2017-08-11T11:52:22.085Z,23.4
2017-08-11T11:53:34.685Z,23.51
2017-08-11T11:54:46.893Z,23.42
2017-08-11T11:55:59.146Z,23.47
2017-08-11T11:57:10.785Z,23.51
2017-08-11T11:58:23.113Z,23.48
2017-08-11T11:59:35.694Z,23.44
2017-08-11T12:00:47.607Z,23.48
2017-08-11T12:01:59.896Z,23.48
2017-08-11T12:03:12.198Z,23.42
2017-08-11T12:04:24.809Z,23.32
2017-08-11T12:05:37.106Z,23.28
2017-08-11T12:06:49.402Z,23.23
2017-08-11T12:08:01.984Z,23.21
2017-08-11T12:09:14.282Z,23.08
2017-08-11T12:10:26.869Z,22.93
2017-08-11T12:11:38.855Z,22.78
2017-08-11T12:12:51.524Z,22.74
2017-08-11T12:14:03.503Z,22.74
2017-08-11T12:15:15.814Z,22.67
2017-08-11T12:16:28.395Z,22.46
2017-08-11T12:17:40.356Z,22.38
2017-08-11T12:18:52.357Z,22.4
2017-08-11T12:20:04.669Z,22.3
2017-08-11T12:21:17.254Z,22.21
2017-08-11T12:22:29.509Z,22.19
2017-08-11T12:23:42.109Z,22.07
2017-08-11T12:24:54.473Z,22.16
2017-08-11T12:26:06.824Z,22.04
2017-08-11T12:27:18.765Z,22.01
2017-08-11T12:28:31.298Z,22.01
2017-08-11T12:29:43.610Z,22
2017-08-11T12:30:55.257Z,21.91
2017-08-11T12:32:07.778Z,21.88
2017-08-11T12:33:19.745Z,21.75
2017-08-11T12:34:32.270Z,21.74
2017-08-11T12:35:44.853Z,21.7
2017-08-11T12:36:56.834Z,21.69
2017-08-11T12:38:09.073Z,21.66
2017-08-11T12:39:21.638Z,21.54
2017-08-11T12:40:34.244Z,21.66
2017-08-11T12:41:46.476Z,21.66
2017-08-11T12:42:59.105Z,21.59
2017-08-11T12:44:11.365Z,21.65
2017-08-11T12:45:24.032Z,21.65
2017-08-11T12:46:36.626Z,21.69
2017-08-11T12:47:48.932Z,21.65
2017-08-11T12:49:01.596Z,21.66
2017-08-11T12:50:14.200Z,21.72
2017-08-11T12:51:26.865Z,21.65
2017-08-11T12:52:38.830Z,21.45
2017-08-11T12:53:51.085Z,21.44
2017-08-11T12:55:03.376Z,21.43
2017-08-11T12:56:15.060Z,21.38
2017-08-11T12:57:27.641Z,21.35
2017-08-11T12:58:40.239Z,21.29
2017-08-11T12:59:52.784Z,21.26
2017-08-11T13:01:05.101Z,21.26
2017-08-11T13:02:17.714Z,21.13
2017-08-11T13:03:30.257Z,21.14
2017-08-11T13:04:42.848Z,21.11
2017-08-11T13:05:55.497Z,21.07
2017-08-11T13:07:08.064Z,21.04
2017-08-11T13:08:20.354Z,21.01
2017-08-11T13:09:32.627Z,20.96
2017-08-11T13:10:45.249Z,21.04
2017-08-11T13:11:57.540Z,21.05
2017-08-11T13:13:10.111Z,21.05
2017-08-11T13:14:22.744Z,21.23
2017-08-11T13:15:35.289Z,21.14
2017-08-11T13:16:47.550Z,21.22
2017-08-11T13:18:00.162Z,21.33
2017-08-11T13:19:12.718Z,21.32
2017-08-11T13:20:24.743Z,21.28
2017-08-11T13:21:37.338Z,21.5
2017-08-11T13:22:49.994Z,21.54
2017-08-11T13:24:02.335Z,21.74
2017-08-11T13:25:14.325Z,21.96
2017-08-11T13:26:26.634Z,22.08
2017-08-11T13:27:39.212Z,22.1
2017-08-11T13:28:51.571Z,22.34
2017-08-11T13:30:03.563Z,22.55
2017-08-11T13:31:16.128Z,22.67
2017-08-11T13:32:28.420Z,22.89
2017-08-11T13:33:40.734Z,22.93
2017-08-11T13:34:53.073Z,22.99
2017-08-11T13:36:05.349Z,22.96
2017-08-11T13:37:17.720Z,22.96
2017-08-11T13:38:29.959Z,22.99
2017-08-11T13:39:42.578Z,22.98
2017-08-11T13:40:54.803Z,22.95
2017-08-11T13:42:06.772Z,22.95
2017-08-11T13:43:18.737Z,22.96
2017-08-11T13:44:31.279Z,23.02
2017-08-11T13:45:43.548Z,23.16
2017-08-11T13:46:56.160Z,23.17
2017-08-11T13:48:08.754Z,23.28
2017-08-11T13:49:21.369Z,23.39
2017-08-11T13:50:33.960Z,23.23
2017-08-11T13:51:46.612Z,23.42
2017-08-11T13:52:58.893Z,23.37
2017-08-11T13:54:11.135Z,23.39
2017-08-11T13:55:23.378Z,23.4
2017-08-11T13:56:36.016Z,23.26
2017-08-11T13:57:48.336Z,23.21
2017-08-11T13:59:00.349Z,23.2
2017-08-11T14:00:12.907Z,23.18
2017-08-11T14:01:25.222Z,23.04
2017-08-11T14:02:37.460Z,23.01
2017-08-11T14:03:50.032Z,23.06
2017-08-11T14:05:02.665Z,22.92
2017-08-11T14:06:15.219Z,22.93
2017-08-11T14:07:27.507Z,22.96
2017-08-11T14:08:39.875Z,22.88
2017-08-11T14:09:52.417Z,22.83
2017-08-11T14:11:04.423Z,22.81
2017-08-11T14:12:16.678Z,22.76
2017-08-11T14:13:29.388Z,22.78
2017-08-11T14:14:41.666Z,22.8
2017-08-11T14:15:53.941Z,22.78
2017-08-11T14:17:06.247Z,22.91
2017-08-11T14:18:18.790Z,22.81
2017-08-11T14:19:31.413Z,22.93
2017-08-11T14:20:43.371Z,22.95
2017-08-11T14:21:55.974Z,22.92
2017-08-11T14:23:08.598Z,22.95
2017-08-11T14:24:20.830Z,22.93
2017-08-11T14:25:33.477Z,22.96
2017-08-11T14:26:46.092Z,22.96
2017-08-11T14:27:58.738Z,23.08
2017-08-11T14:29:11.310Z,23.02
2017-08-11T14:30:23.941Z,22.91
2017-08-11T14:31:36.557Z,22.92
2017-08-11T14:32:48.852Z,22.93
2017-08-11T14:34:01.769Z,22.96
2017-08-11T14:35:13.784Z,22.95
2017-08-11T14:36:26.414Z,22.98
2017-08-11T14:37:39.053Z,22.93
2017-08-11T14:38:51.645Z,22.95
2017-08-11T14:40:03.995Z,22.88
2017-08-11T14:41:15.955Z,22.78
2017-08-11T14:42:28.509Z,22.65
2017-08-11T14:43:40.815Z,22.63
2017-08-11T14:44:52.508Z,22.59
2017-08-11T14:46:04.153Z,22.55
2017-08-11T14:47:16.678Z,22.47
2017-08-11T14:48:28.991Z,22.46
2017-08-11T14:49:41.593Z,22.34
2017-08-11T14:50:53.537Z,22.26
2017-08-11T14:52:05.813Z,22.16
2017-08-11T14:53:17.764Z,22.07
2017-08-11T14:54:30.428Z,22.03
2017-08-11T14:55:43.044Z,21.84
2017-08-11T14:56:55.694Z,21.78
2017-08-11T14:58:08.031Z,21.63
2017-08-11T14:59:20.263Z,21.62
2017-08-11T15:00:32.889Z,21.59
2017-08-11T15:01:45.460Z,21.59
2017-08-11T15:02:57.996Z,21.56
2017-08-11T15:04:10.309Z,21.45
2017-08-11T15:05:22.898Z,21.54
2017-08-11T15:06:35.505Z,21.54
2017-08-11T15:07:47.764Z,21.48
2017-08-11T15:09:00.368Z,21.51
2017-08-11T15:10:12.928Z,21.41
2017-08-11T15:11:25.257Z,21.44
2017-08-11T15:12:37.006Z,21.45
2017-08-11T15:13:49.278Z,21.47
2017-08-11T15:15:01.591Z,21.4
2017-08-11T15:16:13.834Z,21.43
2017-08-11T15:17:26.184Z,21.3
2017-08-11T15:18:38.439Z,21.33
2017-08-11T15:19:50.382Z,21.29
2017-08-11T15:21:02.918Z,21.26
2017-08-11T15:22:15.205Z,21.28
2017-08-11T15:23:27.749Z,21.2
2017-08-11T15:24:39.778Z,21.26
2017-08-11T15:25:52.090Z,21.14
2017-08-11T15:27:04.667Z,21.14
2017-08-11T15:28:16.632Z,21.05
2017-08-11T15:29:29.204Z,21.04
2017-08-11T15:30:41.488Z,21.04
2017-08-11T15:31:53.459Z,20.92
2017-08-11T15:33:06.055Z,20.8
2017-08-11T15:34:18.669Z,20.8
2017-08-11T15:35:31.286Z,20.67